sensor_id;sensor_type;location;lat;lon;timestamp;temperature;humidity
28010;DHT22;15334;49.494;8.410;2022-08-19T19:55:34;26.00;90.40
28010;DHT22;15334;49.494;8.410;2022-08-19T19:58:02;25.50;90.60
28010;DHT22;15334;49.494;8.410;2022-08-19T20:00:32;25.50;90.60
28010;DHT22;15334;49.494;8.410;2022-08-19T20:03:01;25.60;90.50
28010;DHT22;15334;49.494;8.410;2022-08-19T20:05:29;25.60;90.50
28010;DHT22;15334;49.494;8.410;2022-08-19T20:07:57;25.60;90.30
28010;DHT22;15334;49.494;8.410;2022-08-19T20:10:46;25.70;90.40
28010;DHT22;15334;49.494;8.410;2022-08-19T20:13:14;25.70;90.40
28010;DHT22;15334;49.494;8.410;2022-08-19T20:15:42;25.80;90.30
28010;DHT22;15334;49.494;8.410;2022-08-19T20:18:11;25.70;90.20
28010;DHT22;15334;49.494;8.410;2022-08-19T20:20:40;25.70;90.70
28010;DHT22;15334;49.494;8.410;2022-08-19T20:23:08;25.60;90.20
28010;DHT22;15334;49.494;8.410;2022-08-19T20:25:37;25.50;90.30
28010;DHT22;15334;49.494;8.410;2022-08-19T20:28:07;25.50;90.80
28010;DHT22;15334;49.494;8.410;2022-08-19T20:30:38;25.40;90.50
28010;DHT22;15334;49.494;8.410;2022-08-19T20:33:12;25.40;90.50
28010;DHT22;15334;49.494;8.410;2022-08-19T20:35:42;25.30;90.40
28010;DHT22;15334;49.494;8.410;2022-08-19T20:38:10;25.20;90.50
28010;DHT22;15334;49.494;8.410;2022-08-19T20:40:39;25.20;90.60
28010;DHT22;15334;49.494;8.410;2022-08-19T20:43:10;25.10;90.60
28010;DHT22;15334;49.494;8.410;2022-08-19T20:45:39;25.10;90.60
28010;DHT22;15334;49.494;8.410;2022-08-19T20:48:08;25.10;90.60
28010;DHT22;15334;49.494;8.410;2022-08-19T20:50:38;25.00;90.70
28010;DHT22;15334;49.494;8.410;2022-08-19T20:53:11;25.00;90.80
28010;DHT22;15334;49.494;8.410;2022-08-19T20:55:42;25.00;90.90
28010;DHT22;15334;49.494;8.410;2022-08-19T20:58:12;25.00;90.80
28010;DHT22;15334;49.494;8.410;2022-08-19T21:00:41;25.00;90.80
28010;DHT22;15334;49.494;8.410;2022-08-19T21:03:16;24.90;90.90
28010;DHT22;15334;49.494;8.410;2022-08-19T21:05:44;24.80;91.00
28010;DHT22;15334;49.494;8.410;2022-08-19T21:08:14;24.80;91.10
28010;DHT22;15334;49.494;8.410;2022-08-19T21:10:44;24.60;91.20
28010;DHT22;15334;49.494;8.410;2022-08-19T21:13:14;24.60;91.30
28010;DHT22;15334;49.494;8.410;2022-08-19T21:15:42;24.40;91.30
28010;DHT22;15334;49.494;8.410;2022-08-19T21:18:12;24.40;91.50
28010;DHT22;15334;49.494;8.410;2022-08-19T21:20:41;24.40;91.60
28010;DHT22;15334;49.494;8.410;2022-08-19T21:23:12;24.40;91.70
28010;DHT22;15334;49.494;8.410;2022-08-19T21:25:40;24.30;91.80
28010;DHT22;15334;49.494;8.410;2022-08-19T21:28:21;24.20;92.00
28010;DHT22;15334;49.494;8.410;2022-08-19T21:31:02;24.20;92.10
28010;DHT22;15334;49.494;8.410;2022-08-19T21:33:31;24.10;92.30
28010;DHT22;15334;49.494;8.410;2022-08-19T21:35:59;24.20;92.40
28010;DHT22;15334;49.494;8.410;2022-08-19T21:38:27;24.20;92.60
28010;DHT22;15334;49.494;8.410;2022-08-19T21:40:56;24.10;92.70
28010;DHT22;15334;49.494;8.410;2022-08-19T21:43:25;24.10;93.20
28010;DHT22;15334;49.494;8.410;2022-08-19T21:45:54;24.00;93.00
28010;DHT22;15334;49.494;8.410;2022-08-19T21:48:22;24.00;93.20
28010;DHT22;15334;49.494;8.410;2022-08-19T21:50:50;24.00;93.20
28010;DHT22;15334;49.494;8.410;2022-08-19T21:53:18;24.00;93.30
28010;DHT22;15334;49.494;8.410;2022-08-19T21:55:48;24.00;93.50
28010;DHT22;15334;49.494;8.410;2022-08-19T21:58:19;23.90;93.80
28010;DHT22;15334;49.494;8.410;2022-08-19T22:00:58;23.80;94.00
28010;DHT22;15334;49.494;8.410;2022-08-19T22:03:27;23.80;94.30
28010;DHT22;15334;49.494;8.410;2022-08-19T22:05:58;23.70;94.60
28010;DHT22;15334;49.494;8.410;2022-08-19T22:08:26;23.60;94.90
28010;DHT22;15334;49.494;8.410;2022-08-19T22:10:54;23.50;95.20
28010;DHT22;15334;49.494;8.410;2022-08-19T22:13:26;23.40;95.40
28010;DHT22;15334;49.494;8.410;2022-08-19T22:15:54;23.30;95.70
28010;DHT22;15334;49.494;8.410;2022-08-19T22:18:23;23.20;96.10
28010;DHT22;15334;49.494;8.410;2022-08-19T22:20:52;23.10;96.20
28010;DHT22;15334;49.494;8.410;2022-08-19T22:23:20;23.10;96.20
28010;DHT22;15334;49.494;8.410;2022-08-19T22:25:48;23.10;96.40
28010;DHT22;15334;49.494;8.410;2022-08-19T22:28:16;23.00;96.70
28010;DHT22;15334;49.494;8.410;2022-08-19T22:30:54;22.90;97.00
28010;DHT22;15334;49.494;8.410;2022-08-19T22:33:24;22.90;97.20
28010;DHT22;15334;49.494;8.410;2022-08-19T22:35:53;22.80;97.50
28010;DHT22;15334;49.494;8.410;2022-08-19T22:38:21;22.80;98.10
28010;DHT22;15334;49.494;8.410;2022-08-19T22:40:51;22.70;98.50
28010;DHT22;15334;49.494;8.410;2022-08-19T22:43:21;22.60;98.90
28010;DHT22;15334;49.494;8.410;2022-08-19T22:45:53;22.50;99.40
28010;DHT22;15334;49.494;8.410;2022-08-19T22:48:25;22.50;99.60
28010;DHT22;15334;49.494;8.410;2022-08-19T22:50:54;22.40;99.80
28010;DHT22;15334;49.494;8.410;2022-08-19T22:53:41;22.40;99.80
28010;DHT22;15334;49.494;8.410;2022-08-19T22:56:12;22.30;99.90
28010;DHT22;15334;49.494;8.410;2022-08-19T22:58:43;22.30;99.90
28010;DHT22;15334;49.494;8.410;2022-08-19T23:01:17;22.40;99.90
28010;DHT22;15334;49.494;8.410;2022-08-19T23:03:57;22.40;99.90
28010;DHT22;15334;49.494;8.410;2022-08-19T23:06:30;22.30;99.90
28010;DHT22;15334;49.494;8.410;2022-08-19T23:09:01;22.30;99.90
28010;DHT22;15334;49.494;8.410;2022-08-19T23:11:31;22.30;99.90
28010;DHT22;15334;49.494;8.410;2022-08-19T23:14:07;22.30;99.90
28010;DHT22;15334;49.494;8.410;2022-08-19T23:16:36;22.20;99.90
28010;DHT22;15334;49.494;8.410;2022-08-19T23:19:06;22.20;99.90
28010;DHT22;15334;49.494;8.410;2022-08-19T23:21:34;22.20;99.90
28010;DHT22;15334;49.494;8.410;2022-08-19T23:24:03;22.20;99.90
28010;DHT22;15334;49.494;8.410;2022-08-19T23:26:32;22.10;99.90
28010;DHT22;15334;49.494;8.410;2022-08-19T23:29:02;22.10;99.90
28010;DHT22;15334;49.494;8.410;2022-08-19T23:31:48;22.10;99.90
28010;DHT22;15334;49.494;8.410;2022-08-19T23:34:18;22.10;99.90
28010;DHT22;15334;49.494;8.410;2022-08-19T23:36:46;22.10;99.90
28010;DHT22;15334;49.494;8.410;2022-08-19T23:39:16;22.00;99.90
28010;DHT22;15334;49.494;8.410;2022-08-19T23:41:44;22.00;99.90
28010;DHT22;15334;49.494;8.410;2022-08-19T23:44:12;21.90;99.90
28010;DHT22;15334;49.494;8.410;2022-08-19T23:46:41;21.90;99.90
28010;DHT22;15334;49.494;8.410;2022-08-19T23:49:23;21.90;99.90
28010;DHT22;15334;49.494;8.410;2022-08-19T23:51:52;21.80;99.90
